This is the latest recevied weather packets stored in our database for station/object BM1CKC-10. If no packets are shown the sender has not sent any weather packets the latest 10 day(s).
| Time | Temp. | Humidity | Pressure | Rain* | Wind** | Luminosity | Snow |
|---|---|---|---|---|---|---|---|
| 1777612198 | 26.67° C | 51% | 1010.1 hPa | - | - | - | - |
| 1777610998 | 26.67° C | 50% | 1010.3 hPa | - | - | - | - |
| 1777609799 | 26.67° C | 51% | 1010.5 hPa | - | - | - | - |
| 1777608598 | 27.22° C | 50% | 1010.8 hPa | - | - | - | - |
| 1777607398 | 27.22° C | 50% | 1010.9 hPa | - | - | - | - |
| 1777606197 | 26.67° C | 50% | 1011.2 hPa | - | - | - | - |
| 1777604998 | 26.67° C | 51% | 1011.3 hPa | - | - | - | - |
| 1777603797 | 27.78° C | 50% | 1011.3 hPa | - | - | - | - |
| 1777602598 | 27.22° C | 51% | 1011.4 hPa | - | - | - | - |
| 1777601398 | 27.22° C | 51% | 1011.5 hPa | - | - | - | - |
| 1777600198 | 26.67° C | 51% | 1011.5 hPa | - | - | - | - |
| 1777598998 | 27.22° C | 52% | 1011.5 hPa | - | - | - | - |
| 1777597797 | 26.67° C | 53% | 1011.5 hPa | - | - | - | - |
| 1777596597 | 26.67° C | 54% | 1011.5 hPa | - | - | - | - |
| 1777595398 | 26.67° C | 54% | 1011.5 hPa | - | - | - | - |
| 1777594198 | 26.11° C | 56% | 1011.4 hPa | - | - | - | - |
| 1777592998 | 25° C | 62% | 1011.3 hPa | - | - | - | - |
| 1777591798 | 24.44° C | 63% | 1011.2 hPa | - | - | - | - |
| 1777590598 | 25° C | 63% | 1011.2 hPa | - | - | - | - |
| 1777589398 | 25° C | 61% | 1010.8 hPa | - | - | - | - |
| 1777588198 | 24.44° C | 66% | 1010.7 hPa | - | - | - | - |
| 1777586998 | 24.44° C | 63% | 1010.7 hPa | - | - | - | - |
| 1777585798 | 25° C | 63% | 1010.4 hPa | - | - | - | - |
| 1777584599 | 24.44° C | 64% | 1010.2 hPa | - | - | - | - |
| 1777583399 | 25° C | 61% | 1010.2 hPa | - | - | - | - |
* Rain since midnight (hover to see other rain measurements)
** Current wind speed in m/s (hover to see current wind gust speed)